Time;durP1;ratioP1;P1;durP2;ratioP2;P2;SDS_P1;SDS_P2;PMS_P1;PMS_P2;Temp;Humidity;BMP_temperature;BMP_pressure;BME280_temperature;BME280_humidity;BME280_pressure;Samples;Min_cycle;Max_cycle;Signal;HPM_P1;HPM_P2
2022/01/12 00:00:48;;;;;;;;;1.00;1.00;;;;;;;;5269739;28;8777;-72
2022/01/12 00:03:19;;;;;;;;;0.67;0.67;;;;;;;;5287971;28;11418;-72
2022/01/12 00:05:50;;;;;;;;;0.00;0.00;;;;;;;;5288118;28;8796;-71
2022/01/12 00:08:21;;;;;;;;;0.00;0.00;;;;;;;;5269811;28;11479;-73
2022/01/12 00:10:52;;;;;;;;;1.00;1.00;;;;;;;;5287895;28;8753;-72
2022/01/12 00:13:24;;;;;;;;;0.00;0.00;;;;;;;;5270450;28;11379;-72
2022/01/12 00:15:55;;;;;;;;;0.50;0.50;;;;;;;;5287758;28;11413;-71
2022/01/12 00:18:26;;;;;;;;;0.00;0.00;;;;;;;;5269899;28;9471;-72
2022/01/12 00:20:57;;;;;;;;;0.75;0.75;;;;;;;;5269872;28;8903;-72
2022/01/12 00:23:28;;;;;;;;;3.00;3.00;;;;;;;;5287682;28;8907;-73
2022/01/12 00:26:06;;;;;;;;;0.00;0.00;;;;;;;;5269497;28;8765;-73
2022/01/12 00:33:07;;;;;;;;;3.00;3.00;;;;;;;;5273558;28;9451;-73
2022/01/12 00:34:33;;;;;;;;;2.00;2.00;;;;;;;;5273475;28;8834;-72
2022/01/12 00:37:04;;;;;;;;;3.00;3.00;;;;;;;;5273107;28;8769;-72
2022/01/12 00:39:58;;;;;;;;;0.50;0.50;;;;;;;;5291650;28;9480;-73
2022/01/12 00:42:29;;;;;;;;;1.00;0.00;;;;;;;;5291567;28;8777;-73
2022/01/12 00:45:02;;;;;;;;;1.50;1.50;;;;;;;;5273104;28;8788;-73
2022/01/12 00:47:33;;;;;;;;;0.00;0.00;;;;;;;;5273386;28;8898;-73
2022/01/12 00:50:04;;;;;;;;;0.00;0.00;;;;;;;;5290586;28;8899;-75
2022/01/12 00:52:35;;;;;;;;;0.50;0.50;;;;;;;;5272855;28;11403;-70
2022/01/12 00:55:06;;;;;;;;;0.00;0.00;;;;;;;;5273052;28;8860;-70
2022/01/12 00:57:40;;;;;;;;;0.00;0.00;;;;;;;;5273488;28;9505;-71
2022/01/12 01:00:12;;;;;;;;;1.00;0.75;;;;;;;;5239860;28;8781;-71
2022/01/12 01:02:43;;;;;;;;;8.00;8.00;;;;;;;;5272949;28;8777;-71
2022/01/12 01:05:19;;;;;;;;;15.67;15.67;;;;;;;;5290900;28;8792;-70
2022/01/12 01:07:50;;;;;;;;;7.67;7.67;;;;;;;;5272853;28;11720;-71
2022/01/12 01:13:22;;;;;;;;;1.00;1.00;;;;;;;;5272761;28;8780;-70
2022/01/12 01:27:25;;;;;;;;;0.00;0.00;;;;;;;;5291299;28;8791;-69
2022/01/12 01:30:16;;;;;;;;;0.75;0.75;;;;;;;;5290637;28;8776;-68
2022/01/12 01:32:48;;;;;;;;;1.00;1.00;;;;;;;;5272629;28;8772;-68
2022/01/12 01:35:19;;;;;;;;;0.75;0.75;;;;;;;;5272281;28;8812;-74
2022/01/12 01:37:51;;;;;;;;;0.25;0.25;;;;;;;;5255543;28;8780;-73
2022/01/12 01:40:42;;;;;;;;;0.75;0.75;;;;;;;;5289990;28;8806;-72
2022/01/12 01:43:24;;;;;;;;;3.50;3.50;;;;;;;;5255035;28;8783;-72
2022/01/12 01:54:25;;;;;;;;;3.00;3.00;;;;;;;;5271882;28;9060;-71
2022/01/12 01:56:56;;;;;;;;;2.00;2.00;;;;;;;;5272382;28;8941;-70
2022/01/12 01:59:28;;;;;;;;;2.33;2.33;;;;;;;;5254787;28;8776;-70
2022/01/12 02:02:17;;;;;;;;;2.00;2.00;;;;;;;;5290129;28;8938;-70
2022/01/12 02:04:47;;;;;;;;;5.67;5.67;;;;;;;;5271437;28;8768;-71
2022/01/12 02:07:18;;;;;;;;;3.00;3.00;;;;;;;;5271548;28;8812;-71
2022/01/12 02:09:54;;;;;;;;;3.00;3.00;;;;;;;;5255710;28;8768;-69
2022/01/12 02:12:46;;;;;;;;;1.00;1.00;;;;;;;;5289189;28;9518;-68
2022/01/12 02:15:22;;;;;;;;;0.75;0.75;;;;;;;;5272045;28;8804;-71
2022/01/12 02:35:44;;;;;;;;;1.67;1.67;;;;;;;;5289221;28;8793;-72
2022/01/12 02:41:07;;;;;;;;;0.00;0.00;;;;;;;;5271110;28;8757;-73
2022/01/12 02:50:35;;;;;;;;;1.00;1.00;;;;;;;;5271917;28;8871;-73
2022/01/12 02:54:53;;;;;;;;;0.00;0.00;;;;;;;;5271209;28;9009;-72
2022/01/12 02:57:27;;;;;;;;;1.00;1.00;;;;;;;;5271680;28;8858;-72
2022/01/12 03:00:12;;;;;;;;;0.00;0.00;;;;;;;;5237026;28;8882;-71
2022/01/12 03:03:03;;;;;;;;;1.00;1.00;;;;;;;;5289358;28;8777;-71
2022/01/12 03:05:45;;;;;;;;;7.00;7.00;;;;;;;;5270959;28;9188;-72
2022/01/12 03:08:20;;;;;;;;;3.00;3.00;;;;;;;;5288990;28;8980;-70
2022/01/12 03:11:10;;;;;;;;;3.33;3.33;;;;;;;;5288687;28;8896;-69
2022/01/12 03:13:42;;;;;;;;;0.00;0.00;;;;;;;;5270282;28;9779;-70
2022/01/12 03:16:21;;;;;;;;;7.67;7.67;;;;;;;;5288784;28;8861;-70
2022/01/12 03:18:53;;;;;;;;;19.33;17.67;;;;;;;;5288346;28;9232;-71
2022/01/12 03:21:27;;;;;;;;;12.75;12.75;;;;;;;;5270904;28;10318;-69
2022/01/12 03:23:58;;;;;;;;;18.25;17.50;;;;;;;;5270263;28;9908;-69
2022/01/12 03:26:30;;;;;;;;;16.67;16.33;;;;;;;;5236707;28;9806;-69
2022/01/12 03:29:03;;;;;;;;;19.33;18.33;;;;;;;;5269815;28;9694;-69
2022/01/12 03:31:35;;;;;;;;;11.67;11.67;;;;;;;;5270201;28;9529;-68
2022/01/12 03:34:09;;;;;;;;;26.25;24.00;;;;;;;;5270602;28;9730;-68
2022/01/12 03:36:43;;;;;;;;;1.00;1.00;;;;;;;;5288499;28;9893;-69
2022/01/12 03:39:14;;;;;;;;;1.00;1.00;;;;;;;;5270556;28;9583;-69
2022/01/12 03:41:48;;;;;;;;;1.75;1.75;;;;;;;;5269862;28;9036;-69
2022/01/12 03:44:19;;;;;;;;;3.00;3.00;;;;;;;;5270505;28;8836;-69
2022/01/12 03:46:52;;;;;;;;;5.00;3.33;;;;;;;;5269942;28;8780;-70
2022/01/12 03:49:23;;;;;;;;;2.50;2.50;;;;;;;;5270409;28;8957;-70
2022/01/12 03:51:55;;;;;;;;;0.00;0.00;;;;;;;;5236658;28;9574;-69
2022/01/12 03:54:26;;;;;;;;;1.00;1.00;;;;;;;;5288088;28;9044;-70
2022/01/12 03:56:59;;;;;;;;;0.00;0.00;;;;;;;;5287854;28;10567;-71
2022/01/12 03:59:49;;;;;;;;;0.33;0.33;;;;;;;;5273547;28;8854;-70
2022/01/12 04:02:20;;;;;;;;;1.00;1.00;;;;;;;;5287644;28;8950;-70
2022/01/12 04:05:09;;;;;;;;;3.67;3.67;;;;;;;;5291473;28;8780;-71
2022/01/12 04:10:32;;;;;;;;;1.00;1.00;;;;;;;;5273787;28;8884;-71
2022/01/12 04:13:03;;;;;;;;;3.33;3.33;;;;;;;;5273843;28;8877;-71
2022/01/12 04:15:34;;;;;;;;;6.67;6.33;;;;;;;;5291772;28;11023;-70
2022/01/12 04:18:05;;;;;;;;;4.67;4.67;;;;;;;;5256521;28;9873;-71
2022/01/12 04:20:45;;;;;;;;;2.33;2.33;;;;;;;;5291935;28;8937;-71
2022/01/12 04:23:17;;;;;;;;;5.33;5.33;;;;;;;;5292638;28;8784;-71
2022/01/12 04:25:57;;;;;;;;;4.67;4.67;;;;;;;;5256479;28;9108;-70
2022/01/12 04:28:46;;;;;;;;;1.00;1.00;;;;;;;;5273366;28;9266;-74
2022/01/12 04:31:18;;;;;;;;;6.33;6.33;;;;;;;;5272993;28;9088;-73
2022/01/12 04:34:08;;;;;;;;;4.00;4.00;;;;;;;;5276753;28;9283;-72
2022/01/12 04:36:39;;;;;;;;;3.33;1.67;;;;;;;;5273124;28;9235;-69
2022/01/12 04:39:10;;;;;;;;;4.67;4.67;;;;;;;;5273522;28;9178;-69
2022/01/12 04:41:42;;;;;;;;;1.00;1.00;;;;;;;;5290811;28;8769;-71
2022/01/12 04:44:13;;;;;;;;;3.00;3.00;;;;;;;;5272887;28;9412;-71
2022/01/12 04:47:02;;;;;;;;;6.00;6.00;;;;;;;;5273247;28;9319;-71
2022/01/12 04:56:38;;;;;;;;;13.00;13.00;;;;;;;;5291197;28;9293;-74
2022/01/12 04:59:09;;;;;;;;;6.00;6.00;;;;;;;;5272830;28;10079;-76
2022/01/12 05:01:52;;;;;;;;;0.67;0.67;;;;;;;;5292677;28;9104;-77
2022/01/12 05:07:29;;;;;;;;;0.00;0.00;;;;;;;;5273144;28;9189;-76
2022/01/12 05:15:24;;;;;;;;;6.00;6.00;;;;;;;;5271964;28;9199;-74
2022/01/12 05:17:56;;;;;;;;;4.00;4.00;;;;;;;;5273659;28;9150;-75
2022/01/12 05:20:46;;;;;;;;;3.67;3.67;;;;;;;;5273217;28;9234;-74
2022/01/12 05:23:17;;;;;;;;;1.00;1.00;;;;;;;;5290220;28;9363;-73
2022/01/12 05:25:48;;;;;;;;;6.33;6.33;;;;;;;;5273033;28;9056;-74
2022/01/12 05:28:20;;;;;;;;;15.00;13.00;;;;;;;;5272858;28;8784;-74
2022/01/12 05:30:54;;;;;;;;;6.33;5.33;;;;;;;;5272845;28;9491;-73
2022/01/12 05:33:26;;;;;;;;;14.33;14.33;;;;;;;;5256734;28;10458;-74
2022/01/12 05:35:58;;;;;;;;;6.67;6.67;;;;;;;;5272368;28;9869;-71
2022/01/12 05:38:29;;;;;;;;;0.00;0.00;;;;;;;;5263761;28;9437;-71
2022/01/12 05:49:46;;;;;;;;;0.33;0.33;;;;;;;;5289516;28;9092;-72
2022/01/12 05:56:42;;;;;;;;;1.00;1.00;;;;;;;;5310719;27;9252;-75
2022/01/12 05:59:13;;;;;;;;;7.67;7.00;;;;;;;;5293051;27;9172;-72
2022/01/12 06:01:44;;;;;;;;;12.00;12.00;;;;;;;;5275417;27;9853;-73
2022/01/12 06:04:15;;;;;;;;;6.67;6.33;;;;;;;;5292690;27;8794;-74
2022/01/12 06:06:46;;;;;;;;;5.67;5.67;;;;;;;;5258710;27;9467;-72
2022/01/12 06:09:17;;;;;;;;;1.00;1.00;;;;;;;;5309913;27;8774;-71
2022/01/12 06:11:49;;;;;;;;;1.00;1.00;;;;;;;;5276217;27;8932;-74
2022/01/12 06:18:43;;;;;;;;;3.33;3.00;;;;;;;;5310902;27;8789;-74
2022/01/12 06:21:17;;;;;;;;;8.33;8.33;;;;;;;;5293086;27;8938;-73
2022/01/12 06:23:55;;;;;;;;;6.00;6.00;;;;;;;;5311121;27;9408;-73
2022/01/12 06:26:27;;;;;;;;;3.67;3.67;;;;;;;;5291067;27;9281;-75
2022/01/12 06:31:42;;;;;;;;;3.33;3.33;;;;;;;;5270979;27;9138;-73
2022/01/12 06:38:44;;;;;;;;;13.67;13.67;;;;;;;;5309438;27;9258;-71
2022/01/12 06:41:16;;;;;;;;;6.00;5.33;;;;;;;;5274117;27;9421;-71
2022/01/12 06:48:12;;;;;;;;;3.67;3.67;;;;;;;;5310167;27;9334;-73
2022/01/12 06:51:01;;;;;;;;;2.33;2.33;;;;;;;;5294760;27;9000;-74
2022/01/12 06:57:57;;;;;;;;;7.00;7.00;;;;;;;;5309947;27;9235;-72
2022/01/12 07:00:28;;;;;;;;;1.00;1.00;;;;;;;;5291294;27;9389;-73
2022/01/12 07:02:58;;;;;;;;;4.67;4.67;;;;;;;;5291671;27;9311;-72
2022/01/12 07:05:39;;;;;;;;;9.67;9.67;;;;;;;;5258150;27;8779;-71
2022/01/12 07:08:28;;;;;;;;;21.67;21.67;;;;;;;;5293373;27;9356;-72
2022/01/12 07:11:03;;;;;;;;;9.67;9.67;;;;;;;;5257313;27;9644;-72
2022/01/12 07:18:05;;;;;;;;;1.00;1.00;;;;;;;;5309644;27;9247;-73
2022/01/12 07:20:37;;;;;;;;;7.67;7.67;;;;;;;;5274185;27;8883;-73
2022/01/12 07:23:09;;;;;;;;;6.33;6.33;;;;;;;;5274118;27;9539;-72
2022/01/12 07:25:40;;;;;;;;;4.00;4.00;;;;;;;;5291320;27;9199;-71
2022/01/12 07:28:11;;;;;;;;;24.00;23.67;;;;;;;;5309548;27;9283;-74
2022/01/12 07:30:42;;;;;;;;;6.00;6.00;;;;;;;;5291181;27;9709;-72
2022/01/12 07:33:13;;;;;;;;;2.33;2.33;;;;;;;;5257893;27;9234;-71
2022/01/12 07:35:44;;;;;;;;;16.67;15.33;;;;;;;;5291632;27;9049;-71
2022/01/12 07:38:16;;;;;;;;;21.50;20.00;;;;;;;;5274364;27;10075;-71
2022/01/12 07:41:05;;;;;;;;;4.67;4.67;;;;;;;;5313562;27;10000;-72
2022/01/12 07:43:36;;;;;;;;;6.00;6.00;;;;;;;;5295040;27;8896;-72
2022/01/12 07:46:08;;;;;;;;;2.33;2.33;;;;;;;;5278397;27;9002;-69
2022/01/12 07:49:03;;;;;;;;;1.50;1.50;;;;;;;;5311298;27;8850;-69
2022/01/12 07:51:34;;;;;;;;;3.00;3.00;;;;;;;;5293540;28;8795;-67
2022/01/12 07:58:29;;;;;;;;;18.00;17.67;;;;;;;;5292023;28;8716;-68
2022/01/12 08:01:00;;;;;;;;;0.00;0.00;;;;;;;;5273269;28;9275;-69
2022/01/12 08:03:31;;;;;;;;;3.67;3.67;;;;;;;;5240622;28;8792;-68
2022/01/12 08:06:02;;;;;;;;;0.00;0.00;;;;;;;;5273365;28;8818;-69
2022/01/12 08:08:33;;;;;;;;;11.00;11.00;;;;;;;;5291591;28;8795;-69
2022/01/12 08:11:04;;;;;;;;;3.00;3.00;;;;;;;;5291528;28;8808;-69
2022/01/12 08:13:35;;;;;;;;;85.25;65.50;;;;;;;;5274297;28;9115;-69
2022/01/12 08:16:05;;;;;;;;;3.00;3.00;;;;;;;;5273271;28;8922;-69
2022/01/12 08:18:36;;;;;;;;;3.67;3.67;;;;;;;;5291726;28;8918;-69
2022/01/12 08:21:07;;;;;;;;;1.67;1.67;;;;;;;;5273579;28;8808;-68
2022/01/12 08:23:38;;;;;;;;;1.00;1.00;;;;;;;;5292190;28;8788;-69
2022/01/12 08:26:09;;;;;;;;;7.75;6.00;;;;;;;;5274880;28;8981;-68
2022/01/12 08:28:40;;;;;;;;;7.33;6.67;;;;;;;;5272687;28;8931;-69
2022/01/12 08:31:11;;;;;;;;;3.00;3.00;;;;;;;;5291451;28;11501;-68
2022/01/12 08:38:11;;;;;;;;;15.33;15.33;;;;;;;;5290893;28;8741;-68
2022/01/12 08:40:42;;;;;;;;;29.00;28.00;;;;;;;;5290825;28;8890;-71
2022/01/12 08:43:13;;;;;;;;;27.33;27.00;;;;;;;;5273270;28;8795;-69
2022/01/12 08:45:43;;;;;;;;;11.67;11.67;;;;;;;;5273001;28;8807;-68
2022/01/12 08:48:14;;;;;;;;;3.67;3.67;;;;;;;;5291028;28;11614;-67
2022/01/12 08:50:45;;;;;;;;;12.67;12.33;;;;;;;;5290783;28;8776;-70
2022/01/12 08:53:16;;;;;;;;;12.00;12.00;;;;;;;;5272603;28;11564;-68
2022/01/12 08:55:47;;;;;;;;;4.33;4.33;;;;;;;;5267435;28;8868;-69
2022/01/12 08:58:18;;;;;;;;;16.67;16.67;;;;;;;;5291392;28;8938;-69
2022/01/12 09:00:49;;;;;;;;;14.67;14.67;;;;;;;;5290450;28;11440;-69
2022/01/12 09:07:45;;;;;;;;;17.00;13.33;;;;;;;;5311808;27;11421;-69
2022/01/12 09:10:34;;;;;;;;;18.33;17.67;;;;;;;;5312146;27;9079;-69
2022/01/12 09:13:05;;;;;;;;;21.00;20.00;;;;;;;;5312414;27;8863;-68
2022/01/12 09:15:35;;;;;;;;;20.33;19.33;;;;;;;;5311679;27;8842;-68
2022/01/12 09:18:06;;;;;;;;;15.67;15.67;;;;;;;;5311296;27;8782;-69
2022/01/12 09:25:01;;;;;;;;;16.33;16.33;;;;;;;;5311845;27;8746;-69
2022/01/12 09:27:33;;;;;;;;;24.33;24.33;;;;;;;;5312158;27;8854;-69
2022/01/12 09:30:06;;;;;;;;;6.33;6.33;;;;;;;;5311866;27;9807;-70
2022/01/12 09:32:38;;;;;;;;;24.67;24.00;;;;;;;;5310783;27;8806;-69
2022/01/12 09:44:06;;;;;;;;;12.33;10.67;;;;;;;;5311136;27;9054;-69
2022/01/12 09:51:04;;;;;;;;;5.25;5.25;;;;;;;;5311266;27;8817;-68
2022/01/12 09:53:36;;;;;;;;;5.00;5.00;;;;;;;;5293200;27;8797;-68
2022/01/12 09:56:11;;;;;;;;;2.75;2.75;;;;;;;;5310849;27;8817;-70
2022/01/12 09:58:43;;;;;;;;;3.00;3.00;;;;;;;;5311992;27;8782;-70
2022/01/12 10:01:21;;;;;;;;;2.50;2.50;;;;;;;;5291870;27;8789;-67
2022/01/12 10:03:52;;;;;;;;;1.00;1.00;;;;;;;;5311177;27;8839;-69
2022/01/12 10:06:26;;;;;;;;;7.00;7.00;;;;;;;;5311084;27;8778;-68
2022/01/12 10:08:57;;;;;;;;;13.25;11.75;;;;;;;;5311582;27;8777;-69
2022/01/12 10:11:28;;;;;;;;;15.33;15.33;;;;;;;;5311579;27;8822;-68
2022/01/12 10:18:23;;;;;;;;;9.75;9.75;;;;;;;;5310680;27;10748;-69
2022/01/12 10:20:54;;;;;;;;;3.33;3.33;;;;;;;;5311161;27;8767;-70
2022/01/12 10:23:24;;;;;;;;;7.33;7.33;;;;;;;;5309739;27;8782;-70
2022/01/12 10:25:55;;;;;;;;;7.33;6.67;;;;;;;;5291491;27;8758;-69
2022/01/12 10:33:03;;;;;;;;;9.75;9.75;;;;;;;;5310068;27;8710;-70
2022/01/12 10:35:35;;;;;;;;;1.00;1.00;;;;;;;;5258335;27;8799;-70
2022/01/12 10:38:10;;;;;;;;;15.00;14.50;;;;;;;;5291220;27;8779;-70
2022/01/12 10:41:02;;;;;;;;;16.50;16.50;;;;;;;;5310370;27;8762;-74
2022/01/12 10:48:01;;;;;;;;;6.00;6.00;;;;;;;;5310092;27;8723;-72
2022/01/12 10:50:32;;;;;;;;;4.50;4.50;;;;;;;;5258051;27;8793;-74
2022/01/12 10:53:03;;;;;;;;;5.33;5.33;;;;;;;;5309837;27;8758;-70
2022/01/12 10:55:34;;;;;;;;;7.00;7.00;;;;;;;;5275121;27;10431;-71
2022/01/12 10:58:05;;;;;;;;;6.67;6.67;;;;;;;;5310492;27;8763;-70
2022/01/12 11:00:36;;;;;;;;;3.67;3.67;;;;;;;;5291402;27;8771;-71
2022/01/12 11:03:07;;;;;;;;;11.00;10.00;;;;;;;;5292203;27;8782;-72
2022/01/12 11:05:39;;;;;;;;;11.00;11.00;;;;;;;;5292140;27;8762;-73
2022/01/12 11:08:10;;;;;;;;;26.67;26.33;;;;;;;;5291399;27;8782;-73
2022/01/12 11:10:42;;;;;;;;;3.75;3.75;;;;;;;;5291564;27;8794;-71
2022/01/12 11:13:13;;;;;;;;;7.00;7.00;;;;;;;;5309603;27;8827;-71
2022/01/12 11:15:44;;;;;;;;;6.33;6.33;;;;;;;;5291437;27;8817;-69
2022/01/12 11:18:35;;;;;;;;;11.75;11.75;;;;;;;;5310560;27;11409;-70
2022/01/12 11:21:06;;;;;;;;;21.25;21.25;;;;;;;;5309441;27;8792;-73
2022/01/12 11:23:38;;;;;;;;;20.33;20.33;;;;;;;;5309319;27;8775;-73
2022/01/12 11:26:39;;;;;;;;;20.00;20.00;;;;;;;;5291822;27;8778;-73
2022/01/12 11:29:10;;;;;;;;;12.67;9.67;;;;;;;;5267040;27;8979;-73
2022/01/12 11:31:41;;;;;;;;;30.67;26.33;;;;;;;;5310023;27;9233;-72
2022/01/12 11:34:19;;;;;;;;;15.00;15.00;;;;;;;;5309019;27;11456;-72
2022/01/12 11:36:50;;;;;;;;;8.25;8.25;;;;;;;;5291516;27;11425;-69
2022/01/12 11:44:05;;;;;;;;;41.00;39.00;;;;;;;;5309202;27;11311;-71
2022/01/12 11:50:53;;;;;;;;;13.75;12.50;;;;;;;;5314257;27;8781;-71
2022/01/12 11:53:23;;;;;;;;;1.00;1.00;;;;;;;;5274256;27;8774;-72
2022/01/12 11:55:54;;;;;;;;;15.67;15.67;;;;;;;;5309313;27;8813;-70
2022/01/12 11:58:26;;;;;;;;;21.00;21.00;;;;;;;;5273860;27;8770;-71
2022/01/12 12:00:56;;;;;;;;;25.00;23.67;;;;;;;;5257234;27;8828;-70
2022/01/12 12:03:27;;;;;;;;;16.67;16.00;;;;;;;;5309166;27;8984;-71
2022/01/12 12:05:58;;;;;;;;;9.67;9.67;;;;;;;;5274090;27;8808;-71
2022/01/12 12:08:29;;;;;;;;;46.33;41.33;;;;;;;;5309582;27;8839;-70
2022/01/12 12:11:00;;;;;;;;;16.00;15.50;;;;;;;;5309480;27;9496;-70
2022/01/12 12:13:31;;;;;;;;;15.67;15.33;;;;;;;;5309496;27;8770;-70
2022/01/12 12:16:20;;;;;;;;;7.25;7.25;;;;;;;;5291321;27;8882;-73
2022/01/12 12:18:51;;;;;;;;;9.00;9.00;;;;;;;;5290259;27;9472;-71
2022/01/12 12:21:21;;;;;;;;;7.67;7.67;;;;;;;;5257185;27;8770;-71
2022/01/12 12:23:52;;;;;;;;;4.00;4.00;;;;;;;;5275089;27;8840;-71
2022/01/12 12:26:24;;;;;;;;;6.75;6.75;;;;;;;;5313290;27;8908;-71
2022/01/12 12:28:55;;;;;;;;;16.67;16.67;;;;;;;;5313570;27;8774;-73
2022/01/12 12:31:26;;;;;;;;;11.50;10.50;;;;;;;;5294550;27;8890;-73
2022/01/12 12:34:04;;;;;;;;;1.33;1.33;;;;;;;;5313440;27;8762;-74
2022/01/12 12:36:34;;;;;;;;;12.50;11.50;;;;;;;;5312858;27;9496;-71
2022/01/12 12:39:24;;;;;;;;;17.00;17.00;;;;;;;;5294600;27;9465;-74
2022/01/12 12:41:55;;;;;;;;;15.67;15.67;;;;;;;;5312780;27;8793;-74
2022/01/12 12:44:27;;;;;;;;;36.00;35.00;;;;;;;;5295691;27;8790;-73
2022/01/12 12:47:19;;;;;;;;;40.67;32.00;;;;;;;;5280179;27;8771;-73
2022/01/12 12:49:50;;;;;;;;;26.00;25.67;;;;;;;;5293569;27;9730;-74
2022/01/12 12:52:27;;;;;;;;;16.00;15.33;;;;;;;;5291649;27;9307;-71
2022/01/12 12:54:59;;;;;;;;;16.00;16.00;;;;;;;;5312626;27;8834;-72
2022/01/12 12:57:31;;;;;;;;;31.67;30.33;;;;;;;;5313088;27;8951;-74
2022/01/12 13:00:16;;;;;;;;;19.00;19.00;;;;;;;;5294251;27;9321;-64
2022/01/12 13:02:48;;;;;;;;;19.00;17.00;;;;;;;;5293679;27;8942;-64
2022/01/12 13:05:44;;;;;;;;;21.33;21.33;;;;;;;;5312643;27;8762;-64
2022/01/12 13:08:16;;;;;;;;;16.67;15.67;;;;;;;;5312868;27;8852;-70
2022/01/12 13:10:47;;;;;;;;;44.33;39.33;;;;;;;;5311888;27;8890;-68
2022/01/12 13:13:18;;;;;;;;;37.33;26.67;;;;;;;;5294243;27;9435;-68
2022/01/12 13:16:10;;;;;;;;;24.00;24.00;;;;;;;;5312562;27;8794;-69
2022/01/12 13:18:47;;;;;;;;;14.50;13.75;;;;;;;;5312306;27;9250;-70
2022/01/12 13:21:18;;;;;;;;;12.00;9.67;;;;;;;;5312554;27;8778;-69
2022/01/12 13:23:49;;;;;;;;;32.67;30.67;;;;;;;;5276598;27;9095;-69
2022/01/12 13:26:24;;;;;;;;;36.00;35.33;;;;;;;;5293537;27;9286;-69
2022/01/12 13:28:55;;;;;;;;;35.75;32.75;;;;;;;;5312317;27;9671;-69
2022/01/12 13:31:27;;;;;;;;;28.33;25.00;;;;;;;;5294034;27;9900;-69
2022/01/12 13:33:58;;;;;;;;;79.50;64.50;;;;;;;;5293160;27;8798;-71
2022/01/12 13:36:31;;;;;;;;;42.50;42.50;;;;;;;;5310600;27;11013;-70
2022/01/12 13:39:07;;;;;;;;;23.50;23.00;;;;;;;;5312144;27;9700;-70
2022/01/12 13:41:39;;;;;;;;;12.25;9.75;;;;;;;;5311692;27;8754;-69
2022/01/12 13:44:16;;;;;;;;;16.25;16.25;;;;;;;;5311103;27;8785;-72
2022/01/12 13:46:52;;;;;;;;;19.33;17.67;;;;;;;;5311650;27;8793;-69
2022/01/12 13:49:24;;;;;;;;;13.00;12.50;;;;;;;;5276205;27;9017;-70
2022/01/12 13:51:59;;;;;;;;;74.25;60.00;;;;;;;;5259349;27;8797;-70
2022/01/12 13:54:33;;;;;;;;;80.00;66.25;;;;;;;;5311264;27;10770;-70
2022/01/12 13:57:05;;;;;;;;;59.00;51.75;;;;;;;;5311477;27;11382;-70
2022/01/12 14:04:22;;;;;;;;;62.75;51.25;;;;;;;;5306600;27;10411;-69
2022/01/12 14:06:54;;;;;;;;;63.50;54.50;;;;;;;;5293201;27;9804;-70
2022/01/12 14:09:31;;;;;;;;;37.25;35.50;;;;;;;;5310562;27;10890;-69
2022/01/12 14:12:28;;;;;;;;;34.67;33.33;;;;;;;;5275267;27;9814;-70
2022/01/12 14:15:01;;;;;;;;;23.33;23.33;;;;;;;;5305973;27;9345;-69
2022/01/12 14:17:37;;;;;;;;;34.33;31.33;;;;;;;;5310782;27;9160;-67
2022/01/12 14:24:31;;;;;;;;;29.33;25.33;;;;;;;;5310445;27;9123;-69
2022/01/12 14:27:02;;;;;;;;;25.67;24.67;;;;;;;;5275206;27;9296;-69
2022/01/12 14:29:33;;;;;;;;;18.67;18.33;;;;;;;;5292055;27;10117;-69
2022/01/12 14:32:04;;;;;;;;;21.33;21.00;;;;;;;;5310323;27;8874;-69
2022/01/12 14:34:34;;;;;;;;;25.00;24.00;;;;;;;;5275473;27;8818;-70
2022/01/12 14:37:06;;;;;;;;;23.67;23.67;;;;;;;;5310091;27;9811;-70
2022/01/12 14:44:03;;;;;;;;;29.33;25.33;;;;;;;;5304673;27;9135;-66
2022/01/12 14:46:36;;;;;;;;;30.33;29.67;;;;;;;;5291472;27;9338;-69
2022/01/12 14:49:08;;;;;;;;;29.33;28.33;;;;;;;;5269722;28;9656;-69
2022/01/12 14:56:04;;;;;;;;;31.33;29.67;;;;;;;;5287890;28;9392;-69
2022/01/12 14:58:36;;;;;;;;;44.25;43.00;;;;;;;;5270089;28;9411;-70
2022/01/12 15:01:25;;;;;;;;;51.75;46.50;;;;;;;;5288926;28;9959;-67
2022/01/12 15:04:15;;;;;;;;;56.00;49.25;;;;;;;;5288975;28;10427;-69
2022/01/12 15:06:45;;;;;;;;;22.00;22.00;;;;;;;;5270049;28;10033;-69
2022/01/12 15:09:16;;;;;;;;;18.00;16.00;;;;;;;;5287716;28;8868;-67
2022/01/12 15:11:49;;;;;;;;;24.00;21.33;;;;;;;;5288691;28;8827;-71
2022/01/12 15:27:40;;;;;;;;;30.67;30.00;;;;;;;;5288499;27;9390;-68
2022/01/12 15:30:12;;;;;;;;;40.50;34.50;;;;;;;;5291227;27;9602;-69
2022/01/12 15:32:43;;;;;;;;;28.33;26.67;;;;;;;;5290965;27;10868;-70
2022/01/12 15:35:18;;;;;;;;;129.00;99.25;;;;;;;;5273455;27;9393;-69
2022/01/12 15:37:49;;;;;;;;;116.25;92.25;;;;;;;;5256789;27;11521;-72
2022/01/12 15:40:20;;;;;;;;;85.00;65.00;;;;;;;;5309120;27;11514;-70
2022/01/12 15:47:15;;;;;;;;;102.75;70.00;;;;;;;;5309238;27;8726;-70
2022/01/12 15:49:46;;;;;;;;;28.33;27.33;;;;;;;;5309400;27;11476;-69
2022/01/12 15:52:17;;;;;;;;;4.00;4.00;;;;;;;;5309827;27;8763;-70
2022/01/12 15:54:48;;;;;;;;;10.67;10.00;;;;;;;;5309087;27;8806;-69
2022/01/12 15:57:19;;;;;;;;;6.50;5.50;;;;;;;;5309125;27;11429;-71
2022/01/12 15:59:50;;;;;;;;;4.00;4.00;;;;;;;;5310750;27;8754;-70
2022/01/12 16:02:21;;;;;;;;;4.00;4.00;;;;;;;;5311715;27;8854;-69
2022/01/12 16:04:52;;;;;;;;;1.50;1.50;;;;;;;;5312361;27;8813;-67
2022/01/12 16:07:23;;;;;;;;;5.33;5.33;;;;;;;;5312536;27;8755;-72
2022/01/12 16:09:54;;;;;;;;;4.00;4.00;;;;;;;;5294877;27;8798;-69
2022/01/12 16:12:25;;;;;;;;;7.00;7.00;;;;;;;;5313299;27;8778;-70
2022/01/12 16:14:56;;;;;;;;;4.67;4.00;;;;;;;;5294215;27;8903;-69
2022/01/12 16:17:27;;;;;;;;;7.67;7.67;;;;;;;;5312950;27;8794;-68
2022/01/12 16:19:57;;;;;;;;;14.33;13.00;;;;;;;;5294405;27;8786;-70
2022/01/12 16:22:28;;;;;;;;;3.00;3.00;;;;;;;;5312635;27;8782;-70
2022/01/12 16:25:01;;;;;;;;;6.00;6.00;;;;;;;;5260684;27;8837;-68
2022/01/12 16:27:50;;;;;;;;;5.33;5.33;;;;;;;;5294310;27;8808;-69
2022/01/12 16:30:31;;;;;;;;;9.67;9.67;;;;;;;;5312836;27;8942;-69
2022/01/12 16:33:02;;;;;;;;;13.00;13.00;;;;;;;;5294607;27;8797;-70
2022/01/12 16:35:32;;;;;;;;;12.33;12.33;;;;;;;;5294425;27;9138;-70
2022/01/12 16:38:04;;;;;;;;;9.67;9.67;;;;;;;;5313233;27;8766;-70
2022/01/12 16:40:34;;;;;;;;;13.67;13.00;;;;;;;;5293186;27;8866;-69
2022/01/12 16:43:07;;;;;;;;;30.25;28.75;;;;;;;;5312772;27;9458;-69
2022/01/12 16:45:38;;;;;;;;;30.75;29.50;;;;;;;;5294101;27;9508;-69
2022/01/12 16:48:09;;;;;;;;;42.50;42.50;;;;;;;;5293627;27;10188;-69
2022/01/12 16:50:41;;;;;;;;;108.50;81.75;;;;;;;;5312257;27;10181;-68
2022/01/12 16:53:30;;;;;;;;;30.00;29.50;;;;;;;;5312263;27;8779;-70
2022/01/12 16:56:20;;;;;;;;;15.33;13.67;;;;;;;;5311592;27;10040;-69
2022/01/12 16:58:51;;;;;;;;;15.33;13.67;;;;;;;;5294012;27;9414;-69
2022/01/12 17:01:22;;;;;;;;;29.00;28.33;;;;;;;;5294128;27;8770;-69
2022/01/12 17:03:53;;;;;;;;;32.00;26.75;;;;;;;;5293341;27;9532;-70
2022/01/12 17:06:24;;;;;;;;;35.50;33.50;;;;;;;;5293528;27;9935;-70
2022/01/12 17:08:54;;;;;;;;;16.67;16.67;;;;;;;;5293024;27;9430;-70
2022/01/12 17:11:25;;;;;;;;;17.33;16.00;;;;;;;;5312511;27;8821;-69
2022/01/12 17:13:56;;;;;;;;;18.00;16.00;;;;;;;;5312548;27;8762;-70
2022/01/12 17:16:30;;;;;;;;;11.67;11.67;;;;;;;;5277291;27;9348;-70
2022/01/12 17:19:23;;;;;;;;;10.67;10.67;;;;;;;;5293708;27;8759;-69
2022/01/12 17:22:15;;;;;;;;;15.33;14.33;;;;;;;;5295965;27;9248;-69
2022/01/12 17:25:01;;;;;;;;;13.67;13.67;;;;;;;;5311697;27;9645;-69
2022/01/12 17:27:33;;;;;;;;;10.67;10.67;;;;;;;;5293563;27;9517;-69
2022/01/12 17:30:05;;;;;;;;;14.33;14.33;;;;;;;;5311989;27;9301;-69
2022/01/12 17:32:40;;;;;;;;;27.00;20.33;;;;;;;;5311480;27;9706;-68
2022/01/12 17:35:11;;;;;;;;;23.00;22.00;;;;;;;;5311694;27;9690;-69
2022/01/12 17:38:00;;;;;;;;;26.33;25.67;;;;;;;;5296235;27;9680;-69
2022/01/12 17:40:31;;;;;;;;;23.25;23.00;;;;;;;;5310523;27;9648;-70
2022/01/12 17:43:01;;;;;;;;;41.00;38.00;;;;;;;;5276628;27;8770;-69
2022/01/12 17:45:52;;;;;;;;;24.00;23.25;;;;;;;;5311557;27;8787;-70
2022/01/12 17:48:27;;;;;;;;;44.75;36.00;;;;;;;;5275621;27;11003;-66
2022/01/12 17:50:59;;;;;;;;;31.00;27.50;;;;;;;;5292845;27;10054;-68
2022/01/12 17:53:30;;;;;;;;;46.00;44.50;;;;;;;;5276188;27;10278;-69
2022/01/12 17:56:19;;;;;;;;;67.00;55.25;;;;;;;;5278623;27;10645;-69
2022/01/12 17:58:50;;;;;;;;;71.25;56.25;;;;;;;;5292870;27;10843;-69
2022/01/12 18:01:21;;;;;;;;;92.00;70.50;;;;;;;;5293135;27;9481;-70
2022/01/12 18:03:52;;;;;;;;;93.50;71.50;;;;;;;;5293096;27;11436;-70
2022/01/12 18:06:23;;;;;;;;;84.75;67.50;;;;;;;;5311494;27;8771;-69
2022/01/12 18:08:54;;;;;;;;;82.25;65.00;;;;;;;;5275623;27;8793;-70
2022/01/12 18:11:25;;;;;;;;;64.50;53.75;;;;;;;;5270717;28;11477;-69
2022/01/12 18:13:55;;;;;;;;;65.75;54.00;;;;;;;;5289804;28;8775;-69
2022/01/12 18:16:27;;;;;;;;;69.50;56.50;;;;;;;;5290076;28;8816;-69
2022/01/12 18:19:20;;;;;;;;;75.75;61.50;;;;;;;;5271124;28;8780;-70
2022/01/12 18:21:51;;;;;;;;;66.50;45.00;;;;;;;;5289094;28;11387;-70
2022/01/12 18:24:22;;;;;;;;;65.00;49.25;;;;;;;;5289521;28;11463;-72
2022/01/12 18:26:53;;;;;;;;;52.00;46.25;;;;;;;;5254581;28;8793;-69
2022/01/12 18:29:25;;;;;;;;;40.75;39.00;;;;;;;;5270962;28;11193;-70
2022/01/12 18:31:56;;;;;;;;;18.33;16.33;;;;;;;;5289107;28;8780;-69
2022/01/12 18:34:27;;;;;;;;;31.50;30.00;;;;;;;;5288489;28;9720;-70
2022/01/12 18:37:03;;;;;;;;;28.75;28.75;;;;;;;;5270246;28;8816;-69
2022/01/12 18:39:34;;;;;;;;;24.33;22.67;;;;;;;;5270688;28;8815;-70
2022/01/12 18:42:06;;;;;;;;;34.00;28.75;;;;;;;;5253681;28;9543;-68